Airport Name : Danville Rgnl

Other Name : Danville Rgnl

ICAO : KDAN

IATA : DAN

FAA : DAN

Latitude : 36.572861

Longitude : -79.336111

Country : United States

Local Date and Time : 25 Feb 2021 14:42

 

TAF (Terminal Aerodrome Forecast)

KDAN 251739Z 2518/2618 01006KT P6SM SKC FM260000 04003KT P6SM SCT250 FM260700 04004KT P6SM SCT090 OVC150 FM261200 04008KT P6SM OVC050

 

METAR (METeorological Aerodrome Report)

KDAN 251853Z AUTO 00000KT 10SM CLR 17/M05 A3017 RMK AO2 SLP209 T01671050

KDAN 251753Z AUTO 02007KT 10SM CLR 16/M03 A3018 RMK AO2 SLP215 T01611033 10167 20089 58004

KDAN 251653Z AUTO VRB06KT 10SM CLR 16/M03 A3020 RMK AO2 SLP219 T01561033

KDAN 251553Z AUTO 01008KT 10SM CLR 14/M02 A3020 RMK AO2 SLP219 T01441022

To Charter a Jet Click here.